CheckWX is a tool to help pilots better visualize weather data.  It is not intended as a substitute for an official pre-flight weather briefing.

07:03:22 UTC

CYYJ TAF
Victoria International Airport
Victoria, Canada
TAF CYYJ 160540Z 1606/1706 VRB03KT P6SM FEW250 BECMG 1616/1618 10010KT FEW030 SCT140 FM170300 VRB03KT P6SM SCT050 RMK NXT FCST BY 161200Z

Jun-16@
06:00 UTC

Jun-16 @ 06:00 UTC

Jun-16@
16:00 UTC

Jun-16 @ 16:00 UTC

TAF CYYJ 160540Z 1606/1706 VRB03KT P6SM FEW250
Wind
  • Variable at 3 KTS
Cloud Levels
  • Few at 25,000' AGL

Jun-16@
16:00 UTC

Jun-16 @ 16:00 UTC

Jun-17@
03:00 UTC

Jun-17 @ 03:00 UTC

BECMG 1616/1618 10010KT FEW030 SCT140

Becoming

Becoming Conditions expected by Sun, Jun 16, 2019 @ 18:00 UTC

Wind
  • 100° at 10 KTS
Cloud Levels
  • Few at 3,000' AGL
  • Scattered at 14,000' AGL

Jun-17@
03:00 UTC

Jun-17 @ 03:00 UTC

Jun-17@
06:00 UTC

Jun-17 @ 06:00 UTC

FM170300 VRB03KT P6SM SCT050 RMK NXT FCST BY 161200Z

From

From Standard forecast or significant change

Wind
  • Variable at 3 KTS
Cloud Levels
  • Scattered at 5,000' AGL